Rechercher aéroport 
image banner adimage banner ad
image banner ad

FQBR - Beira / International

Situé à Beira, Mozambique

ICAO - FQBR, IATA - BEW

Données fournies par Airmate  

Information générale

Coordonnées: S19°47'45" E34°54'17"
Élévation : 36 feet MSL.
 
Voir autres Aéroports à Sofala Province

Données opérationnelles

Accessible au public
Heure actuelle UTC:
Heure actuelle locale:
Météo
METAR: FQBR 260800Z /////KT 9999 SCT018 BKN/// 30/26 Q1013
TAF: TAF FQBR 260400Z 2606/2712 06010KT 9999 SCT020 TX30/2613Z TN25/2703Z PROB30 TEMPO 2606/2612 5000 TSRA BKN020 FEW025CB BECMG 2612/2614 12010KT BECMG 2618/2620 06010KT BECMG 2706/2708 36010KT
Voir NOTAMs / SUP AIP / TFR affectant cet aéroport [VIEW]
Fréquences de communication: [VIEW]

Pistes:

Identifiant RWYQFULongueur (ft)Largeur (ft)SurfaceLDA (ft)
12104°7874148
30284°7874148
17159°00
35339°00

Coordonnées de l'aéroport

Adresse: Beira Mozambique

Vue satellite de FQBR